createdAt,value
2022-08-10T20:47:57.494Z,54.30
2022-08-10T20:48:37.822Z,54.80
2022-08-10T20:49:24.825Z,54.80
2022-08-10T20:50:07.630Z,54.60
2022-08-10T20:50:46.047Z,54.50
2022-08-10T20:51:24.028Z,54.50
2022-08-10T20:52:19.183Z,54.60
2022-08-10T20:52:53.567Z,54.80
2022-08-10T20:53:29.949Z,55.10
2022-08-10T20:54:06.858Z,55.20
2022-08-10T20:54:49.000Z,55.10
2022-08-10T20:55:27.080Z,55.10
2022-08-10T20:56:12.533Z,55.10
2022-08-10T20:57:00.524Z,55.10
2022-08-10T20:58:02.830Z,55.00
2022-08-10T20:59:09.266Z,54.80
2022-08-10T21:00:02.472Z,54.70
2022-08-10T21:00:53.451Z,54.60
2022-08-10T21:02:05.995Z,54.40
2022-08-10T21:02:56.091Z,54.30
2022-08-10T21:03:43.733Z,54.30
2022-08-10T21:04:34.801Z,54.30
2022-08-10T21:05:20.176Z,54.40
2022-08-10T21:06:09.908Z,54.50
2022-08-10T21:07:57.882Z,54.40
2022-08-10T21:08:34.259Z,54.50
2022-08-10T21:09:25.453Z,54.60
2022-08-10T21:10:07.925Z,54.60
2022-08-10T21:11:02.265Z,54.60
2022-08-10T21:11:50.306Z,54.70
2022-08-10T21:12:50.715Z,54.60
2022-08-10T21:13:45.004Z,54.50
2022-08-10T21:14:36.849Z,54.40
2022-08-10T21:15:23.443Z,54.40
2022-08-10T21:16:08.885Z,54.40
2022-08-10T21:17:04.003Z,54.40
2022-08-10T21:18:12.967Z,54.30
2022-08-10T21:18:57.973Z,54.30
2022-08-10T21:19:55.638Z,54.60
2022-08-10T21:21:59.340Z,54.60
2022-08-10T21:22:41.626Z,54.30
2022-08-10T21:23:18.803Z,54.30
2022-08-10T21:23:58.610Z,54.30
2022-08-10T21:24:40.901Z,54.40
2022-08-10T21:25:20.201Z,54.50
2022-08-10T21:25:41.517Z,54.50
2022-08-10T21:26:10.154Z,54.40
2022-08-10T21:26:56.846Z,54.80
2022-08-10T21:28:14.841Z,54.10
2022-08-10T21:29:11.255Z,54.20
2022-08-10T21:30:08.755Z,54.50
2022-08-10T21:30:59.796Z,54.50
2022-08-10T21:31:49.272Z,54.40
2022-08-10T21:32:39.150Z,54.30
2022-08-10T21:33:21.018Z,54.20
2022-08-10T21:34:39.377Z,54.30
2022-08-10T21:35:39.253Z,54.40
2022-08-10T21:36:18.934Z,54.50
2022-08-10T21:37:00.141Z,54.50
2022-08-10T21:37:56.830Z,54.50
2022-08-10T21:38:46.948Z,54.70
2022-08-10T21:39:42.427Z,54.50
2022-08-10T21:40:40.555Z,54.40
2022-08-10T21:41:57.703Z,54.40
2022-08-10T21:43:04.060Z,54.40
2022-08-10T21:44:07.399Z,54.30
2022-08-10T21:45:16.807Z,54.30
2022-08-10T21:46:24.228Z,54.40
2022-08-10T21:47:43.343Z,54.30
2022-08-10T21:48:57.305Z,54.50
2022-08-10T21:50:04.395Z,54.70
2022-08-10T21:51:07.313Z,54.80
2022-08-10T21:52:06.488Z,54.80
2022-08-10T21:53:04.425Z,54.70
2022-08-10T21:54:04.058Z,54.60
2022-08-10T21:55:04.330Z,54.70
2022-08-10T21:56:07.080Z,54.90
2022-08-10T21:57:12.179Z,54.80
2022-08-10T21:58:12.305Z,55.00
2022-08-10T21:59:13.345Z,54.90
2022-08-10T22:00:11.822Z,54.90
2022-08-10T22:01:39.729Z,55.10
2022-08-10T22:02:41.158Z,55.10
2022-08-10T22:03:44.255Z,54.90
2022-08-10T22:04:36.471Z,55.10
2022-08-10T22:05:39.035Z,55.20
2022-08-10T22:06:33.128Z,55.00
2022-08-10T22:07:33.401Z,55.10
2022-08-10T22:08:30.746Z,55.20
2022-08-10T22:09:28.207Z,55.10
2022-08-10T22:10:31.317Z,55.30
2022-08-10T22:11:28.192Z,55.60
2022-08-10T22:12:31.097Z,55.50
2022-08-10T22:13:25.409Z,55.30
2022-08-10T22:14:17.109Z,55.30
2022-08-10T22:15:11.046Z,55.30
2022-08-10T22:16:11.973Z,55.40
2022-08-10T22:17:59.661Z,55.40
2022-08-10T22:18:31.415Z,55.40
2022-08-10T22:19:24.495Z,55.30
2022-08-10T22:20:24.828Z,55.30
2022-08-10T22:21:29.077Z,55.40
2022-08-10T22:22:45.367Z,55.70
2022-08-10T22:24:16.980Z,55.90
2022-08-10T22:25:39.236Z,55.80
2022-08-10T22:26:44.039Z,56.20
2022-08-10T22:27:56.068Z,55.90
2022-08-10T22:28:48.984Z,56.10
2022-08-10T22:29:52.687Z,56.20
2022-08-10T22:31:22.763Z,56.20
2022-08-10T22:32:18.657Z,56.30
2022-08-10T22:33:33.281Z,56.40
2022-08-10T22:34:41.722Z,56.50
2022-08-10T22:35:55.832Z,56.50
2022-08-10T22:37:10.553Z,56.60
2022-08-10T22:38:15.674Z,56.70
2022-08-10T22:40:07.363Z,56.60
2022-08-10T22:40:35.108Z,56.60
2022-08-10T22:41:32.012Z,56.60
2022-08-10T22:42:58.972Z,56.50
2022-08-10T22:43:51.189Z,56.50
2022-08-10T22:44:44.399Z,56.50
2022-08-10T22:45:38.200Z,56.80
2022-08-10T22:46:36.675Z,56.80
2022-08-10T22:47:37.228Z,56.80
2022-08-10T22:48:29.623Z,56.80
2022-08-10T22:49:03.313Z,56.80
2022-08-10T22:49:37.529Z,57.00
2022-08-10T22:50:12.468Z,56.90
2022-08-10T22:50:48.997Z,56.80
2022-08-10T22:51:26.228Z,56.80
2022-08-10T22:52:05.784Z,56.90
2022-08-10T22:53:01.898Z,57.10
2022-08-10T22:54:02.607Z,57.20
2022-08-10T22:55:03.988Z,57.20
2022-08-10T22:56:00.568Z,57.10
2022-08-10T22:56:56.907Z,57.10
2022-08-10T22:57:48.385Z,57.00
2022-08-10T22:58:40.162Z,57.00
2022-08-10T22:59:14.578Z,57.00
2022-08-10T22:59:50.203Z,57.20
2022-08-10T23:00:31.422Z,57.20
2022-08-10T23:01:11.608Z,57.20
2022-08-10T23:02:07.645Z,57.00
2022-08-10T23:02:52.615Z,56.90
2022-08-10T23:03:29.249Z,57.00
2022-08-10T23:04:12.921Z,57.00
2022-08-10T23:04:55.359Z,56.90
2022-08-10T23:05:35.252Z,56.90
2022-08-10T23:06:16.007Z,56.90
2022-08-10T23:06:56.895Z,56.90
2022-08-10T23:07:34.133Z,56.90
2022-08-10T23:08:29.671Z,56.90
2022-08-10T23:09:10.106Z,57.10
2022-08-10T23:09:47.500Z,57.20
2022-08-10T23:10:29.860Z,57.30
2022-08-10T23:11:08.046Z,57.40
2022-08-10T23:11:46.112Z,57.40
2022-08-10T23:12:38.181Z,57.60
2022-08-10T23:13:35.709Z,58.10
2022-08-10T23:14:13.839Z,57.60
2022-08-10T23:14:59.299Z,57.70
2022-08-10T23:15:56.710Z,58.20
2022-08-10T23:16:56.431Z,57.60
2022-08-10T23:18:01.196Z,57.60
2022-08-10T23:18:58.962Z,57.60
2022-08-10T23:19:39.578Z,57.60
2022-08-10T23:20:20.915Z,57.60
2022-08-10T23:21:01.333Z,57.60
2022-08-10T23:22:02.969Z,57.60
2022-08-10T23:22:43.771Z,57.60
2022-08-10T23:23:24.339Z,57.60
2022-08-10T23:24:00.326Z,57.60
